createdAt,value
2023-05-04T00:00:16.959Z,85.0
2023-05-04T00:01:17.508Z,86.0
2023-05-04T00:02:17.480Z,86.1
2023-05-04T00:03:17.175Z,86.1
2023-05-04T00:04:17.046Z,85.7
2023-05-04T00:05:16.644Z,85.1
2023-05-04T00:06:17.177Z,85.0
2023-05-04T00:07:16.737Z,84.8
2023-05-04T00:08:17.284Z,84.6
2023-05-04T00:09:16.845Z,84.6
2023-05-04T00:10:17.449Z,84.7
2023-05-04T00:11:17.024Z,84.7
2023-05-04T00:12:17.029Z,84.7
2023-05-04T00:13:16.642Z,84.7
2023-05-04T00:14:17.228Z,85.2
2023-05-04T00:15:16.822Z,85.9
2023-05-04T00:16:17.418Z,85.9
2023-05-04T00:17:17.030Z,86.5
2023-05-04T00:18:16.631Z,86.4
2023-05-04T00:19:17.170Z,86.3
2023-05-04T00:20:16.787Z,86.5
2023-05-04T00:21:17.349Z,86.6
2023-05-04T00:22:17.337Z,86.4
2023-05-04T00:23:16.905Z,86.6
2023-05-04T00:24:17.496Z,86.2
2023-05-04T00:25:17.041Z,86.0
2023-05-04T00:26:16.593Z,86.1
2023-05-04T00:27:17.202Z,86.1
2023-05-04T00:28:16.826Z,85.8
2023-05-04T00:29:16.665Z,85.9
2023-05-04T00:30:17.251Z,86.0
2023-05-04T00:31:16.846Z,86.1
2023-05-04T00:32:16.647Z,86.1
2023-05-04T00:33:17.193Z,86.0
2023-05-04T00:34:16.719Z,85.9
2023-05-04T00:35:17.282Z,85.9
2023-05-04T00:36:16.840Z,86.0
2023-05-04T00:37:17.402Z,86.3
2023-05-04T00:38:17.084Z,87.8
2023-05-04T00:39:16.654Z,88.1
2023-05-04T00:40:17.213Z,87.9
2023-05-04T00:41:16.750Z,88.5
2023-05-04T00:42:17.251Z,88.8
2023-05-04T00:43:16.799Z,88.9
2023-05-04T00:44:17.351Z,88.7
2023-05-04T00:45:16.871Z,88.8
2023-05-04T00:46:17.508Z,88.8
2023-05-04T00:47:17.476Z,89.0
2023-05-04T00:48:17.081Z,88.4
2023-05-04T00:49:16.696Z,88.2
2023-05-04T00:50:17.300Z,87.8
2023-05-04T00:51:16.878Z,87.7
2023-05-04T00:52:17.422Z,87.6
2023-05-04T00:53:16.998Z,87.7
2023-05-04T00:54:16.591Z,87.7
2023-05-04T00:55:17.203Z,87.8
2023-05-04T00:56:16.902Z,87.8
2023-05-04T00:57:17.473Z,87.9
2023-05-04T00:58:17.019Z,87.9
2023-05-04T00:59:16.574Z,87.9
2023-05-04T01:00:17.148Z,88.4
2023-05-04T01:01:16.836Z,89.2
2023-05-04T01:02:17.546Z,89.2
2023-05-04T01:03:17.471Z,88.8
2023-05-04T01:04:17.108Z,89.3
2023-05-04T01:05:16.723Z,89.4
2023-05-04T01:06:17.336Z,89.1
2023-05-04T01:07:16.905Z,89.4
2023-05-04T01:08:17.457Z,89.4
2023-05-04T01:09:16.990Z,89.2
2023-05-04T01:10:16.563Z,88.9
2023-05-04T01:11:17.117Z,88.8
2023-05-04T01:12:17.110Z,88.9
2023-05-04T01:13:16.962Z,88.6
2023-05-04T01:14:16.557Z,88.3
2023-05-04T01:15:17.094Z,88.3
2023-05-04T01:16:16.715Z,88.3
2023-05-04T01:17:17.311Z,88.3
2023-05-04T01:18:17.069Z,88.9
2023-05-04T01:19:16.702Z,89.1
2023-05-04T01:20:17.221Z,88.9
2023-05-04T01:21:16.770Z,89.0
2023-05-04T01:22:17.475Z,88.9
2023-05-04T01:23:17.037Z,88.6
2023-05-04T01:24:16.607Z,88.9
2023-05-04T01:25:17.160Z,88.9
2023-05-04T01:26:16.684Z,88.7
2023-05-04T01:27:17.222Z,88.8
2023-05-04T01:28:16.757Z,89.0
2023-05-04T01:29:17.352Z,88.8
2023-05-04T01:30:16.889Z,88.7
2023-05-04T01:31:17.584Z,88.9
2023-05-04T01:32:16.654Z,89.0
2023-05-04T01:33:17.232Z,88.9
2023-05-04T01:34:16.794Z,89.2
2023-05-04T01:35:17.332Z,89.2
2023-05-04T01:36:16.905Z,88.9
2023-05-04T01:37:17.466Z,89.0
2023-05-04T01:38:17.025Z,89.4
2023-05-04T01:39:16.568Z,89.5
2023-05-04T01:40:17.128Z,89.6
2023-05-04T01:41:16.724Z,89.6
2023-05-04T01:42:17.236Z,89.5
2023-05-04T01:43:16.777Z,89.2
2023-05-04T01:44:17.351Z,89.0
2023-05-04T01:45:16.886Z,88.8
2023-05-04T01:46:17.528Z,88.8
2023-05-04T01:47:17.096Z,88.9
2023-05-04T01:48:16.649Z,88.8
2023-05-04T01:49:17.209Z,88.9
2023-05-04T01:50:16.787Z,89.2
2023-05-04T01:51:17.341Z,89.3
2023-05-04T01:52:17.236Z,89.4
2023-05-04T01:53:16.788Z,89.7
2023-05-04T01:54:17.339Z,90.1
2023-05-04T01:55:16.904Z,90.2
2023-05-04T01:56:17.467Z,90.4
2023-05-04T01:57:17.038Z,90.4
2023-05-04T01:58:16.600Z,90.4
2023-05-04T01:59:17.189Z,90.6
2023-05-04T02:00:16.820Z,90.4
2023-05-04T02:01:17.464Z,90.5
2023-05-04T02:02:17.242Z,90.6
2023-05-04T02:03:16.980Z,90.8
2023-05-04T02:04:16.563Z,90.5
2023-05-04T02:05:17.114Z,90.4
2023-05-04T02:06:16.652Z,90.5
2023-05-04T02:07:17.224Z,90.5
2023-05-04T02:08:16.792Z,90.6
2023-05-04T02:09:17.373Z,90.6
2023-05-04T02:10:16.965Z,90.4
2023-05-04T02:11:17.504Z,90.3
2023-05-04T02:12:17.470Z,90.2
2023-05-04T02:13:17.310Z,90.5
2023-05-04T02:14:17.006Z,90.5
2023-05-04T02:15:16.591Z,90.5
2023-05-04T02:16:17.258Z,90.3
2023-05-04T02:17:16.839Z,90.3
2023-05-04T02:18:16.911Z,90.3
2023-05-04T02:19:17.521Z,90.3
2023-05-04T02:20:17.093Z,90.3
2023-05-04T02:21:16.628Z,90.3
2023-05-04T02:22:16.934Z,90.8
2023-05-04T02:23:17.513Z,90.9
2023-05-04T02:24:17.075Z,90.6
2023-05-04T02:25:16.607Z,90.7
2023-05-04T02:26:17.183Z,90.8
2023-05-04T02:27:16.758Z,90.8
2023-05-04T02:28:17.324Z,90.9
2023-05-04T02:29:16.857Z,91.0
2023-05-04T02:30:17.448Z,91.1
2023-05-04T02:31:17.257Z,91.2
2023-05-04T02:32:17.466Z,91.3
2023-05-04T02:33:17.044Z,91.2
2023-05-04T02:34:16.587Z,91.0
2023-05-04T02:35:17.151Z,90.9
2023-05-04T02:36:16.714Z,91.2
2023-05-04T02:37:17.264Z,91.4
2023-05-04T02:38:16.816Z,91.4
2023-05-04T02:39:17.367Z,91.1
2023-05-04T02:40:16.967Z,90.9
2023-05-04T02:41:16.525Z,90.9
2023-05-04T02:42:17.273Z,90.9
2023-05-04T02:43:16.873Z,90.8
2023-05-04T02:44:17.430Z,90.7
2023-05-04T02:45:17.003Z,90.7
2023-05-04T02:46:16.680Z,90.7
2023-05-04T02:47:17.303Z,90.7
2023-05-04T02:48:16.847Z,90.7
2023-05-04T02:49:17.387Z,90.7
2023-05-04T02:50:16.957Z,91.4
2023-05-04T02:51:17.492Z,91.6
2023-05-04T02:52:16.764Z,91.6
2023-05-04T02:53:17.325Z,91.5
2023-05-04T02:54:16.852Z,91.6
2023-05-04T02:55:17.388Z,91.5
2023-05-04T02:56:16.930Z,91.2
2023-05-04T02:57:17.509Z,91.1
2023-05-04T02:58:17.061Z,91.0
2023-05-04T02:59:16.621Z,90.9
2023-05-04T03:00:17.181Z,90.9
2023-05-04T03:01:16.815Z,90.9
2023-05-04T03:02:17.455Z,90.9
2023-05-04T03:03:17.017Z,91.0
2023-05-04T03:04:16.650Z,91.3
2023-05-04T03:05:17.230Z,91.5
2023-05-04T03:06:16.801Z,91.6
2023-05-04T03:07:17.350Z,91.7
2023-05-04T03:08:16.920Z,91.8
2023-05-04T03:09:17.434Z,92.1
2023-05-04T03:10:16.958Z,92.0
2023-05-04T03:11:17.459Z,91.8
2023-05-04T03:12:17.362Z,91.8
2023-05-04T03:13:17.205Z,91.6
2023-05-04T03:14:16.838Z,91.5
2023-05-04T03:15:17.373Z,91.5
2023-05-04T03:16:17.036Z,91.4
2023-05-04T03:17:16.585Z,91.4
2023-05-04T03:18:17.123Z,91.4
2023-05-04T03:19:16.689Z,91.3
2023-05-04T03:20:17.272Z,91.3
2023-05-04T03:21:16.864Z,91.2
2023-05-04T03:22:17.396Z,91.2
2023-05-04T03:23:16.942Z,91.4
2023-05-04T03:24:17.499Z,91.3
2023-05-04T03:25:17.064Z,91.3
2023-05-04T03:26:16.656Z,91.4
2023-05-04T03:27:17.195Z,91.4
2023-05-04T03:28:16.740Z,91.3
2023-05-04T03:29:17.299Z,91.5
2023-05-04T03:30:16.833Z,91.5
2023-05-04T03:31:17.421Z,91.8
2023-05-04T03:32:17.456Z,91.7
2023-05-04T03:33:17.033Z,91.5
2023-05-04T03:34:16.560Z,91.5
2023-05-04T03:35:25.133Z,91.5
2023-05-04T03:36:16.818Z,91.6
2023-05-04T03:37:17.344Z,91.6
2023-05-04T03:38:16.882Z,91.6
2023-05-04T03:39:17.424Z,91.6
2023-05-04T03:40:16.950Z,91.4
2023-05-04T03:41:17.470Z,91.3
2023-05-04T03:42:17.245Z,91.3
2023-05-04T03:43:16.836Z,91.2
2023-05-04T03:44:17.402Z,91.2
2023-05-04T03:45:16.975Z,91.2
2023-05-04T03:46:16.663Z,91.2
2023-05-04T03:47:17.276Z,91.3
2023-05-04T03:48:16.844Z,91.3
2023-05-04T03:49:17.436Z,91.3
2023-05-04T03:50:17.031Z,91.2
2023-05-04T03:51:16.576Z,91.2
2023-05-04T03:52:17.182Z,91.3
2023-05-04T03:53:16.726Z,91.3
2023-05-04T03:54:17.303Z,91.5
2023-05-04T03:55:16.853Z,91.6
2023-05-04T03:56:17.435Z,91.4
2023-05-04T03:57:16.985Z,91.4
2023-05-04T03:58:16.540Z,91.4
2023-05-04T03:59:17.127Z,91.3
2023-05-04T04:00:16.720Z,91.3
2023-05-04T04:01:17.265Z,91.4
2023-05-04T04:02:17.638Z,91.2
2023-05-04T04:03:17.725Z,91.2
2023-05-04T04:04:17.438Z,91.2
2023-05-04T04:05:17.008Z,91.1
2023-05-04T04:06:16.538Z,91.1
2023-05-04T04:07:17.116Z,91.1
2023-05-04T04:08:16.672Z,91.1
2023-05-04T04:09:17.315Z,91.0
2023-05-04T04:10:17.068Z,91.0
2023-05-04T04:11:16.627Z,91.0
2023-05-04T04:12:16.856Z,91.0
2023-05-04T04:13:17.550Z,90.9
2023-05-04T04:14:17.125Z,90.9
2023-05-04T04:15:16.708Z,91.0
2023-05-04T04:16:17.383Z,91.3
2023-05-04T04:17:16.990Z,91.2
2023-05-04T04:18:16.541Z,91.3
2023-05-04T04:19:17.100Z,91.1
2023-05-04T04:20:16.690Z,91.0
2023-05-04T04:21:17.271Z,91.0
2023-05-04T04:22:16.696Z,91.0
2023-05-04T04:23:17.283Z,91.0
2023-05-04T04:24:16.816Z,90.9
2023-05-04T04:25:17.413Z,90.9
2023-05-04T04:26:16.969Z,90.8
2023-05-04T04:27:16.501Z,90.8
2023-05-04T04:28:17.049Z,90.8
2023-05-04T04:29:16.587Z,90.5
2023-05-04T04:30:17.150Z,90.5
2023-05-04T04:31:16.747Z,90.4
2023-05-04T04:32:17.333Z,90.3
2023-05-04T04:33:16.897Z,90.2
2023-05-04T04:34:17.462Z,90.1
2023-05-04T04:35:17.046Z,90.0
2023-05-04T04:36:16.594Z,90.0
2023-05-04T04:37:17.132Z,90.1
2023-05-04T04:38:16.704Z,90.2
2023-05-04T04:39:17.497Z,90.1
2023-05-04T04:40:17.057Z,90.0
2023-05-04T04:41:16.605Z,89.9
2023-05-04T04:42:17.424Z,89.7
2023-05-04T04:43:16.975Z,89.0
2023-05-04T04:44:16.551Z,89.4
2023-05-04T04:45:17.107Z,89.6
2023-05-04T04:46:16.808Z,89.3
2023-05-04T04:47:17.402Z,89.2
2023-05-04T04:48:16.996Z,89.3
2023-05-04T04:49:16.558Z,88.9
2023-05-04T04:50:17.114Z,88.7
2023-05-04T04:51:16.652Z,88.8
2023-05-04T04:52:17.192Z,88.6
2023-05-04T04:53:16.730Z,88.4
2023-05-04T04:54:17.330Z,88.1
2023-05-04T04:55:16.897Z,88.5
2023-05-04T04:56:17.475Z,88.0
2023-05-04T04:57:17.064Z,87.4
2023-05-04T04:58:16.607Z,87.8
2023-05-04T04:59:17.186Z,87.5
2023-05-04T05:00:16.753Z,87.2
2023-05-04T05:01:17.380Z,87.2
2023-05-04T05:02:17.456Z,87.1
2023-05-04T05:03:17.233Z,87.2
2023-05-04T05:04:16.955Z,87.5
2023-05-04T05:05:16.681Z,87.3
2023-05-04T05:06:17.264Z,87.0
2023-05-04T05:07:16.799Z,87.4
2023-05-04T05:08:17.329Z,86.9
2023-05-04T05:09:16.847Z,86.5
2023-05-04T05:10:17.388Z,86.8
2023-05-04T05:11:16.924Z,86.5
2023-05-04T05:12:16.620Z,86.2
2023-05-04T05:13:17.457Z,86.5
2023-05-04T05:14:17.108Z,86.4
2023-05-04T05:15:16.667Z,85.7
2023-05-04T05:16:17.333Z,85.0
2023-05-04T05:17:16.939Z,85.8
2023-05-04T05:18:17.517Z,85.5
2023-05-04T05:19:17.066Z,85.3
2023-05-04T05:20:16.616Z,85.5
2023-05-04T05:21:17.168Z,85.4
2023-05-04T05:22:17.410Z,85.5
2023-05-04T05:23:16.937Z,85.0
2023-05-04T05:24:17.458Z,85.5
2023-05-04T05:25:17.005Z,84.1
2023-05-04T05:26:16.584Z,83.5
2023-05-04T05:27:17.163Z,84.5
2023-05-04T05:28:16.722Z,83.7
2023-05-04T05:29:17.269Z,83.0
2023-05-04T05:30:16.852Z,82.9
2023-05-04T05:31:17.516Z,82.9
2023-05-04T05:32:17.079Z,81.5
2023-05-04T05:33:16.737Z,81.5
2023-05-04T05:34:17.363Z,81.1
2023-05-04T05:35:16.905Z,80.7
2023-05-04T05:36:17.478Z,80.1
2023-05-04T05:37:17.024Z,80.1
2023-05-04T05:38:16.620Z,80.1
2023-05-04T05:39:17.168Z,78.4
2023-05-04T05:40:16.763Z,78.3
2023-05-04T05:41:17.337Z,78.6
2023-05-04T05:42:17.098Z,78.0
2023-05-04T05:43:16.672Z,78.4
2023-05-04T05:44:17.212Z,78.6
2023-05-04T05:45:16.811Z,77.7
2023-05-04T05:46:17.393Z,75.6
2023-05-04T05:47:17.000Z,75.7
2023-05-04T05:48:16.532Z,76.6
2023-05-04T05:49:17.064Z,75.9
2023-05-04T05:50:16.617Z,76.4
2023-05-04T05:51:17.167Z,76.7
2023-05-04T05:52:17.019Z,76.4
2023-05-04T05:53:16.579Z,74.9
2023-05-04T05:54:17.149Z,75.4
2023-05-04T05:55:16.712Z,75.4
2023-05-04T05:56:17.257Z,74.9
2023-05-04T05:57:16.867Z,75.0
2023-05-04T05:58:17.435Z,75.0
2023-05-04T05:59:16.989Z,73.7
2023-05-04T06:00:16.543Z,73.9
2023-05-04T06:01:17.103Z,75.0
2023-05-04T06:02:17.264Z,74.3
2023-05-04T06:03:16.993Z,72.8
2023-05-04T06:04:16.731Z,73.4
2023-05-04T06:05:17.363Z,73.0
2023-05-04T06:06:16.932Z,71.3
2023-05-04T06:07:17.510Z,71.8
2023-05-04T06:08:17.058Z,72.1
2023-05-04T06:09:16.674Z,72.2
2023-05-04T06:10:17.310Z,72.1
2023-05-04T06:11:16.879Z,71.1
2023-05-04T06:12:16.891Z,71.0
2023-05-04T06:13:17.526Z,71.1
2023-05-04T06:14:17.110Z,71.1
2023-05-04T06:15:16.657Z,71.2
2023-05-04T06:16:17.285Z,71.1
2023-05-04T06:17:16.904Z,69.5
2023-05-04T06:18:17.424Z,68.7
2023-05-04T06:19:16.987Z,69.9
2023-05-04T06:20:16.560Z,69.9
2023-05-04T06:21:17.148Z,69.6
2023-05-04T06:22:16.907Z,70.0
2023-05-04T06:23:17.471Z,68.3
2023-05-04T06:24:17.076Z,67.4
2023-05-04T06:25:16.680Z,66.2
2023-05-04T06:26:17.238Z,67.0
2023-05-04T06:27:16.767Z,67.0
2023-05-04T06:28:17.322Z,66.3
2023-05-04T06:29:16.899Z,66.8
2023-05-04T06:30:17.489Z,65.6
2023-05-04T06:31:17.100Z,64.4
2023-05-04T06:32:16.969Z,65.9
2023-05-04T06:33:16.581Z,65.8
2023-05-04T06:34:17.209Z,66.0
2023-05-04T06:35:16.796Z,64.8
2023-05-04T06:36:17.353Z,65.1
2023-05-04T06:37:16.897Z,64.8
2023-05-04T06:38:17.460Z,63.9
2023-05-04T06:39:17.040Z,63.9
2023-05-04T06:40:16.650Z,64.6
2023-05-04T06:41:17.351Z,65.8
2023-05-04T06:42:16.603Z,63.8
2023-05-04T06:43:17.345Z,63.8
2023-05-04T06:44:16.904Z,62.6
2023-05-04T06:45:17.473Z,61.5
2023-05-04T06:46:17.141Z,61.0
2023-05-04T06:47:16.753Z,60.9
2023-05-04T06:48:17.315Z,61.2
2023-05-04T06:49:16.854Z,61.1
2023-05-04T06:50:17.455Z,60.7
2023-05-04T06:51:17.032Z,60.8
2023-05-04T06:52:17.437Z,60.8
2023-05-04T06:53:17.040Z,60.6
2023-05-04T06:54:16.602Z,60.2
2023-05-04T06:55:17.196Z,60.1
2023-05-04T06:56:16.724Z,59.8
2023-05-04T06:57:17.308Z,59.4
2023-05-04T06:58:16.859Z,60.1
2023-05-04T06:59:17.452Z,59.6
2023-05-04T07:00:17.002Z,60.7
2023-05-04T07:01:18.702Z,59.9
2023-05-04T07:02:16.768Z,59.5
2023-05-04T07:03:17.441Z,58.6
2023-05-04T07:04:17.096Z,58.6
2023-05-04T07:05:16.692Z,58.3
2023-05-04T07:06:17.248Z,56.9
2023-05-04T07:07:16.828Z,57.4
2023-05-04T07:08:17.369Z,57.5
2023-05-04T07:09:16.999Z,57.2
2023-05-04T07:10:16.589Z,57.2
2023-05-04T07:11:17.155Z,57.5
2023-05-04T07:12:17.091Z,57.0
2023-05-04T07:13:16.711Z,56.4
2023-05-04T07:14:17.440Z,56.1
2023-05-04T07:15:17.020Z,55.8
2023-05-04T07:16:16.730Z,55.2
2023-05-04T07:17:17.301Z,54.3
2023-05-04T07:18:16.877Z,54.4
2023-05-04T07:19:17.493Z,53.8
2023-05-04T07:20:17.071Z,54.1
2023-05-04T07:21:29.265Z,53.8
2023-05-04T07:22:16.724Z,55.9
2023-05-04T07:23:17.281Z,55.0
2023-05-04T07:24:16.918Z,53.8
2023-05-04T07:25:17.445Z,53.9
2023-05-04T07:26:17.036Z,54.0
2023-05-04T07:27:16.564Z,54.1
2023-05-04T07:28:17.102Z,54.1
2023-05-04T07:29:16.649Z,55.1
2023-05-04T07:30:17.351Z,55.6
2023-05-04T07:31:16.898Z,55.1
2023-05-04T07:32:17.360Z,54.0
2023-05-04T07:33:17.128Z,53.6
2023-05-04T07:34:16.698Z,53.0
2023-05-04T07:35:17.272Z,52.3
2023-05-04T07:36:16.837Z,52.2
2023-05-04T07:37:17.421Z,53.6
2023-05-04T07:38:16.940Z,55.2
2023-05-04T07:39:17.496Z,54.7
2023-05-04T07:40:17.064Z,53.1
2023-05-04T07:41:16.669Z,52.8
2023-05-04T07:42:16.630Z,52.1
2023-05-04T07:43:17.210Z,51.4
2023-05-04T07:44:16.947Z,51.8
2023-05-04T07:45:16.553Z,50.8
2023-05-04T07:46:17.238Z,51.1
2023-05-04T07:47:16.847Z,50.5
2023-05-04T07:48:18.231Z,52.1
2023-05-04T07:49:16.806Z,51.2
2023-05-04T07:50:17.361Z,50.4
2023-05-04T07:51:16.893Z,49.8
2023-05-04T07:52:16.561Z,49.1
2023-05-04T07:53:17.097Z,50.6
2023-05-04T07:54:16.669Z,51.0
2023-05-04T07:55:17.283Z,50.9
2023-05-04T07:56:16.827Z,50.9
2023-05-04T07:57:17.408Z,51.1
2023-05-04T07:58:17.201Z,52.6
2023-05-04T07:59:16.776Z,52.1
2023-05-04T08:00:17.356Z,52.1
2023-05-04T08:01:16.911Z,51.9
2023-05-04T08:02:17.189Z,53.3
2023-05-04T08:03:16.893Z,53.2
2023-05-04T08:04:17.466Z,52.3
2023-05-04T08:05:17.022Z,51.7
2023-05-04T08:06:16.576Z,50.4
2023-05-04T08:07:17.189Z,49.9
2023-05-04T08:08:16.743Z,48.9
2023-05-04T08:09:17.306Z,49.3
2023-05-04T08:10:16.873Z,47.9
2023-05-04T08:11:21.286Z,48.2
2023-05-04T08:12:17.409Z,48.4
2023-05-04T08:13:17.164Z,47.5
2023-05-04T08:14:16.747Z,49.0
2023-05-04T08:15:17.289Z,49.4
2023-05-04T08:16:16.832Z,48.6
2023-05-04T08:17:17.416Z,48.0
2023-05-04T08:18:16.951Z,46.7
2023-05-04T08:19:17.583Z,47.0
2023-05-04T08:20:17.167Z,47.0
2023-05-04T08:21:16.724Z,46.7
2023-05-04T08:22:17.511Z,46.6
2023-05-04T08:23:17.120Z,46.0
2023-05-04T08:24:16.702Z,46.6
2023-05-04T08:25:17.300Z,47.9
2023-05-04T08:26:16.872Z,48.4
2023-05-04T08:27:17.408Z,49.9
2023-05-04T08:28:16.977Z,49.4
2023-05-04T08:29:16.512Z,50.3
2023-05-04T08:30:17.112Z,49.1
2023-05-04T08:31:16.710Z,48.8
2023-05-04T08:32:17.193Z,49.9
2023-05-04T08:33:16.778Z,48.2
2023-05-04T08:34:17.366Z,48.1
2023-05-04T08:35:16.915Z,47.7
2023-05-04T08:36:17.499Z,47.7
2023-05-04T08:37:17.054Z,50.2
2023-05-04T08:38:16.648Z,51.2
2023-05-04T08:39:17.224Z,50.8
2023-05-04T08:40:16.807Z,50.1
2023-05-04T08:41:17.363Z,49.1
2023-05-04T08:42:17.273Z,48.7
2023-05-04T08:43:16.800Z,48.6
2023-05-04T08:44:17.395Z,47.1
2023-05-04T08:45:16.932Z,47.7
2023-05-04T08:46:17.716Z,48.0
2023-05-04T08:47:17.386Z,48.0
2023-05-04T08:48:16.937Z,46.6
2023-05-04T08:49:17.505Z,47.8
2023-05-04T08:50:17.070Z,48.3
2023-05-04T08:51:16.638Z,48.6
2023-05-04T08:52:16.606Z,47.2
2023-05-04T08:53:17.193Z,47.1
2023-05-04T08:54:16.752Z,46.0
2023-05-04T08:55:17.392Z,45.7
2023-05-04T08:56:16.982Z,45.8
2023-05-04T08:57:16.546Z,45.9
2023-05-04T08:58:17.113Z,46.2
2023-05-04T08:59:16.693Z,47.2
2023-05-04T09:00:17.281Z,44.8
2023-05-04T09:01:17.096Z,45.1
2023-05-04T09:02:16.901Z,45.6
2023-05-04T09:03:17.708Z,45.7
2023-05-04T09:04:17.289Z,44.8
2023-05-04T09:05:16.841Z,45.7
2023-05-04T09:06:17.399Z,45.8
2023-05-04T09:07:16.933Z,45.5
2023-05-04T09:08:17.460Z,43.0
2023-05-04T09:09:17.009Z,42.7
2023-05-04T09:10:16.571Z,41.4
2023-05-04T09:11:17.149Z,42.1
2023-05-04T09:12:16.911Z,42.1
2023-05-04T09:13:17.632Z,43.6
2023-05-04T09:14:17.222Z,43.2
2023-05-04T09:15:16.789Z,43.8
2023-05-04T09:16:17.468Z,43.6
2023-05-04T09:17:17.045Z,43.3
2023-05-04T09:18:16.653Z,43.2
2023-05-04T09:19:17.300Z,43.5
2023-05-04T09:20:16.863Z,44.8
2023-05-04T09:21:17.413Z,44.5
2023-05-04T09:22:17.169Z,46.5
2023-05-04T09:23:16.847Z,45.4
2023-05-04T09:24:17.424Z,44.6
2023-05-04T09:25:16.982Z,43.4
2023-05-04T09:26:16.546Z,41.7
2023-05-04T09:27:17.113Z,41.2
2023-05-04T09:28:16.670Z,42.3
2023-05-04T09:29:17.246Z,43.2
2023-05-04T09:30:16.812Z,44.7
2023-05-04T09:31:17.438Z,44.7
2023-05-04T09:32:17.152Z,46.9
2023-05-04T09:33:16.768Z,45.7
2023-05-04T09:34:17.365Z,45.5
2023-05-04T09:35:32.999Z,44.6
2023-05-04T09:36:17.356Z,46.4
2023-05-04T09:37:16.929Z,47.3
2023-05-04T09:38:17.506Z,45.1
2023-05-04T09:39:17.074Z,43.4
2023-05-04T09:40:16.645Z,44.3
2023-05-04T09:41:17.220Z,45.5
2023-05-04T09:42:17.206Z,45.1
2023-05-04T09:43:16.753Z,44.3
2023-05-04T09:44:17.301Z,43.7
2023-05-04T09:45:16.892Z,43.0
2023-05-04T09:46:17.592Z,42.7
2023-05-04T09:47:17.186Z,42.8
2023-05-04T09:48:16.815Z,42.9
2023-05-04T09:49:17.487Z,43.5
2023-05-04T09:50:21.139Z,45.4
2023-05-04T09:51:16.789Z,43.9
2023-05-04T09:52:17.300Z,45.4
2023-05-04T09:53:16.856Z,45.4
2023-05-04T09:54:17.415Z,43.4
2023-05-04T09:55:17.053Z,42.9
2023-05-04T09:56:16.620Z,42.3
2023-05-04T09:57:17.211Z,42.9
2023-05-04T09:58:16.755Z,42.4
2023-05-04T09:59:17.303Z,42.5
2023-05-04T10:00:16.860Z,42.7
2023-05-04T10:01:17.606Z,43.5
2023-05-04T10:02:23.647Z,44.4
2023-05-04T10:03:17.328Z,44.4
2023-05-04T10:04:16.883Z,44.7
2023-05-04T10:05:17.736Z,44.2
2023-05-04T10:06:17.508Z,42.6
2023-05-04T10:07:17.124Z,45.7
2023-05-04T10:08:16.684Z,45.1
2023-05-04T10:09:17.268Z,45.5
2023-05-04T10:10:16.866Z,46.1
2023-05-04T10:11:17.414Z,45.0
2023-05-04T10:12:16.942Z,43.0
2023-05-04T10:13:16.659Z,42.9
2023-05-04T10:14:17.316Z,41.7
2023-05-04T10:15:16.887Z,42.1
2023-05-04T10:16:17.523Z,41.6
2023-05-04T10:17:17.082Z,40.1
2023-05-04T10:18:16.662Z,41.1
2023-05-04T10:19:17.217Z,40.8
2023-05-04T10:20:16.888Z,39.9
2023-05-04T10:21:17.461Z,39.3
2023-05-04T10:22:17.545Z,39.1
2023-05-04T10:23:17.104Z,38.5
2023-05-04T10:24:16.657Z,38.9
2023-05-04T10:25:17.237Z,40.7
2023-05-04T10:26:16.792Z,39.3
2023-05-04T10:27:17.357Z,39.0
2023-05-04T10:28:16.903Z,39.2
2023-05-04T10:29:17.467Z,40.7
2023-05-04T10:30:17.087Z,40.9
2023-05-04T10:31:16.769Z,40.7
2023-05-04T10:32:16.829Z,41.5
2023-05-04T10:33:17.518Z,41.4
2023-05-04T10:34:17.210Z,40.5
2023-05-04T10:35:16.819Z,41.7
2023-05-04T10:36:17.400Z,42.3
2023-05-04T10:37:16.988Z,41.9
2023-05-04T10:38:16.541Z,42.1
2023-05-04T10:39:17.115Z,42.8
2023-05-04T10:40:16.692Z,42.9
2023-05-04T10:41:17.342Z,42.3
2023-05-04T10:42:16.915Z,42.0
2023-05-04T10:43:17.448Z,43.5
2023-05-04T10:44:16.996Z,42.8
2023-05-04T10:45:16.549Z,43.4
2023-05-04T10:46:17.375Z,42.3
2023-05-04T10:47:17.013Z,41.5
2023-05-04T10:48:16.585Z,43.1
2023-05-04T10:49:17.179Z,43.1
2023-05-04T10:50:16.788Z,40.9
2023-05-04T10:51:17.469Z,42.2
2023-05-04T10:52:17.459Z,42.7
2023-05-04T10:53:17.043Z,42.1
2023-05-04T10:54:16.625Z,42.7
2023-05-04T10:55:17.201Z,41.9
2023-05-04T10:56:16.752Z,42.6
2023-05-04T10:57:17.322Z,41.2
2023-05-04T10:58:17.036Z,41.8
2023-05-04T10:59:16.607Z,41.6
2023-05-04T11:00:17.178Z,41.0
2023-05-04T11:01:16.804Z,41.8
2023-05-04T11:02:17.087Z,39.7
2023-05-04T11:03:16.851Z,38.4
2023-05-04T11:04:17.500Z,39.9
2023-05-04T11:05:17.039Z,40.1
2023-05-04T11:06:16.572Z,39.8
2023-05-04T11:07:17.148Z,39.7
2023-05-04T11:08:16.808Z,39.5
2023-05-04T11:09:17.380Z,41.3
2023-05-04T11:10:16.941Z,42.0
2023-05-04T11:11:17.497Z,42.0
2023-05-04T11:12:17.387Z,39.8
2023-05-04T11:13:17.163Z,40.7
2023-05-04T11:14:16.864Z,40.7
2023-05-04T11:15:17.425Z,40.0
2023-05-04T11:16:17.054Z,39.9
2023-05-04T11:17:27.964Z,40.4
2023-05-04T11:18:19.242Z,41.7
2023-05-04T11:19:16.776Z,42.5
2023-05-04T11:20:17.335Z,42.3
2023-05-04T11:21:16.891Z,42.5
2023-05-04T11:22:17.098Z,43.2
2023-05-04T11:23:16.644Z,42.5
2023-05-04T11:24:17.264Z,42.1
2023-05-04T11:25:16.856Z,42.3
2023-05-04T11:26:17.433Z,41.9
2023-05-04T11:27:16.980Z,41.9
2023-05-04T11:28:16.553Z,41.1
2023-05-04T11:29:17.140Z,41.3
2023-05-04T11:30:16.729Z,41.2
2023-05-04T11:31:17.518Z,41.9
2023-05-04T11:32:17.038Z,42.6
2023-05-04T11:33:16.620Z,41.8
2023-05-04T11:34:17.152Z,42.2
2023-05-04T11:35:16.690Z,42.8
2023-05-04T11:36:17.258Z,42.9
2023-05-04T11:37:16.840Z,44.0
2023-05-04T11:38:17.357Z,42.9
2023-05-04T11:39:16.921Z,42.5
2023-05-04T11:40:17.507Z,41.8
2023-05-04T11:41:17.053Z,42.6
2023-05-04T11:42:16.578Z,43.0
2023-05-04T11:43:17.126Z,42.8
2023-05-04T11:44:16.685Z,43.7
2023-05-04T11:45:17.295Z,44.6
2023-05-04T11:46:17.157Z,44.0
2023-05-04T11:47:16.772Z,43.1
2023-05-04T11:48:19.032Z,42.7
2023-05-04T11:49:16.614Z,42.6
2023-05-04T11:50:17.189Z,42.7
2023-05-04T11:51:16.746Z,42.8
2023-05-04T11:52:16.740Z,42.3
2023-05-04T11:53:17.294Z,42.8
2023-05-04T11:54:16.849Z,42.8
2023-05-04T11:55:17.412Z,43.9
2023-05-04T11:56:16.954Z,43.6
2023-05-04T11:57:17.589Z,44.0
2023-05-04T11:58:17.173Z,44.2
2023-05-04T11:59:16.733Z,43.9
2023-05-04T12:00:17.295Z,44.7
2023-05-04T12:01:16.832Z,44.6
2023-05-04T12:02:17.061Z,44.7
2023-05-04T12:03:16.952Z,44.9
2023-05-04T12:04:16.652Z,43.9
2023-05-04T12:05:17.281Z,44.6
2023-05-04T12:06:16.831Z,45.2
2023-05-04T12:07:17.424Z,45.1
2023-05-04T12:08:16.997Z,45.4
2023-05-04T12:09:16.558Z,45.7
2023-05-04T12:10:17.177Z,45.3
2023-05-04T12:11:16.872Z,45.0
2023-05-04T12:12:17.332Z,45.0
2023-05-04T12:13:16.971Z,45.3
2023-05-04T12:14:16.528Z,45.2
2023-05-04T12:15:17.086Z,44.4
2023-05-04T12:16:16.784Z,44.5
2023-05-04T12:17:17.398Z,44.6
2023-05-04T12:18:16.952Z,44.4
2023-05-04T12:19:17.492Z,44.4
2023-05-04T12:20:17.074Z,44.3
2023-05-04T12:21:16.653Z,44.5
2023-05-04T12:22:17.125Z,44.3
2023-05-04T12:23:16.741Z,44.4
2023-05-04T12:24:17.334Z,44.1
2023-05-04T12:25:16.930Z,44.5
2023-05-04T12:26:20.051Z,44.3
2023-05-04T12:27:16.647Z,43.8
2023-05-04T12:28:17.216Z,44.0
2023-05-04T12:29:16.767Z,43.8
2023-05-04T12:30:17.351Z,44.2
2023-05-04T12:31:16.963Z,44.0
2023-05-04T12:32:16.641Z,43.4
2023-05-04T12:33:17.213Z,42.5
2023-05-04T12:34:16.825Z,42.4
2023-05-04T12:35:17.417Z,42.8
2023-05-04T12:36:16.990Z,42.3
2023-05-04T12:37:16.580Z,43.1
2023-05-04T12:38:17.162Z,43.6
2023-05-04T12:39:16.748Z,43.9
2023-05-04T12:40:29.032Z,43.9
2023-05-04T12:41:16.667Z,43.6
2023-05-04T12:42:17.121Z,43.8
2023-05-04T12:43:18.152Z,44.0
2023-05-04T12:44:16.638Z,44.8
2023-05-04T12:45:17.290Z,45.0
2023-05-04T12:46:16.997Z,45.1
2023-05-04T12:47:16.589Z,44.7
2023-05-04T12:48:17.159Z,44.8
2023-05-04T12:49:16.894Z,43.9
2023-05-04T12:50:17.445Z,43.0
2023-05-04T12:51:17.020Z,42.0
2023-05-04T12:52:17.442Z,42.5
2023-05-04T12:53:17.100Z,42.8
2023-05-04T12:54:16.679Z,43.1
2023-05-04T12:55:17.244Z,43.0
2023-05-04T12:56:16.802Z,42.8
2023-05-04T12:57:17.360Z,42.4
2023-05-04T12:58:16.924Z,41.9
2023-05-04T12:59:17.510Z,41.3
2023-05-04T13:00:17.089Z,40.4
2023-05-04T13:01:16.693Z,41.4
2023-05-04T13:02:16.585Z,41.3
2023-05-04T13:03:17.363Z,40.9
2023-05-04T13:04:16.993Z,41.2
2023-05-04T13:05:16.567Z,40.9
2023-05-04T13:06:17.147Z,40.8
2023-05-04T13:07:16.719Z,41.1
2023-05-04T13:08:17.247Z,41.3
2023-05-04T13:09:16.789Z,41.6
2023-05-04T13:10:17.341Z,42.0
2023-05-04T13:11:16.961Z,42.5
2023-05-04T13:12:17.064Z,42.7
2023-05-04T13:13:16.719Z,42.4
2023-05-04T13:14:17.450Z,42.7
2023-05-04T13:15:17.007Z,42.8
2023-05-04T13:16:16.594Z,42.8
2023-05-04T13:17:17.182Z,42.7
2023-05-04T13:18:16.714Z,42.3